sensor_id;sensor_type;location;lat;lon;timestamp;P1;durP1;ratioP1;P2;durP2;ratioP2
2019;SDS011;1014;51.960;8.542;2023-12-20T00:00:59;102.17;;;96.07;;
2019;SDS011;1014;51.960;8.542;2023-12-20T00:03:26;97.17;;;91.37;;
2019;SDS011;1014;51.960;8.542;2023-12-20T00:05:53;97.57;;;91.43;;
2019;SDS011;1014;51.960;8.542;2023-12-20T00:08:20;102.13;;;95.73;;
2019;SDS011;1014;51.960;8.542;2023-12-20T00:10:47;101.30;;;95.18;;
2019;SDS011;1014;51.960;8.542;2023-12-20T00:13:14;98.27;;;92.33;;
2019;SDS011;1014;51.960;8.542;2023-12-20T00:15:43;101.90;;;95.60;;
2019;SDS011;1014;51.960;8.542;2023-12-20T00:18:10;100.70;;;94.47;;
2019;SDS011;1014;51.960;8.542;2023-12-20T00:20:36;98.93;;;92.77;;
2019;SDS011;1014;51.960;8.542;2023-12-20T00:23:03;103.70;;;97.37;;
2019;SDS011;1014;51.960;8.542;2023-12-20T00:25:30;101.30;;;94.50;;
2019;SDS011;1014;51.960;8.542;2023-12-20T00:27:57;94.97;;;88.50;;
2019;SDS011;1014;51.960;8.542;2023-12-20T00:30:26;99.90;;;93.73;;
2019;SDS011;1014;51.960;8.542;2023-12-20T00:32:54;96.77;;;90.73;;
2019;SDS011;1014;51.960;8.542;2023-12-20T00:35:21;98.77;;;92.77;;
2019;SDS011;1014;51.960;8.542;2023-12-20T00:37:48;98.37;;;91.83;;
2019;SDS011;1014;51.960;8.542;2023-12-20T00:40:15;92.13;;;86.63;;
2019;SDS011;1014;51.960;8.542;2023-12-20T00:42:42;92.37;;;87.13;;
2019;SDS011;1014;51.960;8.542;2023-12-20T00:45:11;96.70;;;90.80;;
2019;SDS011;1014;51.960;8.542;2023-12-20T00:47:39;94.43;;;87.77;;
2019;SDS011;1014;51.960;8.542;2023-12-20T00:50:08;95.53;;;90.10;;
2019;SDS011;1014;51.960;8.542;2023-12-20T00:52:35;96.10;;;90.47;;
2019;SDS011;1014;51.960;8.542;2023-12-20T00:55:02;90.93;;;85.50;;
2019;SDS011;1014;51.960;8.542;2023-12-20T00:57:29;90.90;;;85.10;;
2019;SDS011;1014;51.960;8.542;2023-12-20T00:59:57;93.13;;;86.67;;
2019;SDS011;1014;51.960;8.542;2023-12-20T01:02:24;87.25;;;82.03;;
2019;SDS011;1014;51.960;8.542;2023-12-20T01:04:51;92.07;;;86.17;;
2019;SDS011;1014;51.960;8.542;2023-12-20T01:07:19;91.40;;;85.60;;
2019;SDS011;1014;51.960;8.542;2023-12-20T01:09:46;94.18;;;88.70;;
2019;SDS011;1014;51.960;8.542;2023-12-20T01:12:13;88.80;;;83.50;;
2019;SDS011;1014;51.960;8.542;2023-12-20T01:14:40;92.20;;;86.67;;
2019;SDS011;1014;51.960;8.542;2023-12-20T01:17:07;91.43;;;86.03;;
2019;SDS011;1014;51.960;8.542;2023-12-20T01:19:34;87.40;;;82.78;;
2019;SDS011;1014;51.960;8.542;2023-12-20T01:22:01;92.70;;;87.23;;
2019;SDS011;1014;51.960;8.542;2023-12-20T01:24:30;92.88;;;86.57;;
2019;SDS011;1014;51.960;8.542;2023-12-20T01:26:56;96.23;;;90.37;;
2019;SDS011;1014;51.960;8.542;2023-12-20T01:29:23;91.00;;;84.60;;
2019;SDS011;1014;51.960;8.542;2023-12-20T01:31:50;87.97;;;82.43;;
2019;SDS011;1014;51.960;8.542;2023-12-20T01:34:17;91.63;;;86.10;;
2019;SDS011;1014;51.960;8.542;2023-12-20T01:36:44;90.83;;;85.53;;
2019;SDS011;1014;51.960;8.542;2023-12-20T01:39:11;90.07;;;84.90;;
2019;SDS011;1014;51.960;8.542;2023-12-20T01:41:40;88.40;;;83.30;;
2019;SDS011;1014;51.960;8.542;2023-12-20T01:44:07;85.57;;;80.43;;
2019;SDS011;1014;51.960;8.542;2023-12-20T01:46:34;92.10;;;86.43;;
2019;SDS011;1014;51.960;8.542;2023-12-20T01:49:01;82.47;;;77.83;;
2019;SDS011;1014;51.960;8.542;2023-12-20T01:51:28;80.15;;;75.75;;
2019;SDS011;1014;51.960;8.542;2023-12-20T01:53:55;75.80;;;71.67;;
2019;SDS011;1014;51.960;8.542;2023-12-20T01:56:23;77.05;;;72.75;;
2019;SDS011;1014;51.960;8.542;2023-12-20T01:58:51;82.63;;;78.13;;
2019;SDS011;1014;51.960;8.542;2023-12-20T02:01:18;81.43;;;76.70;;
2019;SDS011;1014;51.960;8.542;2023-12-20T02:03:46;78.27;;;74.03;;
2019;SDS011;1014;51.960;8.542;2023-12-20T02:06:13;77.60;;;73.23;;
2019;SDS011;1014;51.960;8.542;2023-12-20T02:08:40;83.67;;;79.07;;
2019;SDS011;1014;51.960;8.542;2023-12-20T02:11:06;84.23;;;79.40;;
2019;SDS011;1014;51.960;8.542;2023-12-20T02:13:33;82.27;;;77.50;;
2019;SDS011;1014;51.960;8.542;2023-12-20T02:16:01;82.00;;;77.20;;
2019;SDS011;1014;51.960;8.542;2023-12-20T02:18:29;79.13;;;74.93;;
2019;SDS011;1014;51.960;8.542;2023-12-20T02:20:56;84.37;;;79.27;;
2019;SDS011;1014;51.960;8.542;2023-12-20T02:23:24;81.20;;;76.57;;
2019;SDS011;1014;51.960;8.542;2023-12-20T02:25:51;83.33;;;78.93;;
2019;SDS011;1014;51.960;8.542;2023-12-20T02:28:18;81.77;;;77.47;;
2019;SDS011;1014;51.960;8.542;2023-12-20T02:30:46;79.70;;;75.45;;
2019;SDS011;1014;51.960;8.542;2023-12-20T02:33:14;77.80;;;73.70;;
2019;SDS011;1014;51.960;8.542;2023-12-20T02:35:42;86.47;;;80.97;;
2019;SDS011;1014;51.960;8.542;2023-12-20T02:38:09;83.30;;;78.80;;
2019;SDS011;1014;51.960;8.542;2023-12-20T02:40:37;84.78;;;79.88;;
2019;SDS011;1014;51.960;8.542;2023-12-20T02:43:04;80.83;;;76.00;;
2019;SDS011;1014;51.960;8.542;2023-12-20T02:45:31;86.03;;;80.43;;
2019;SDS011;1014;51.960;8.542;2023-12-20T02:47:58;79.67;;;75.63;;
2019;SDS011;1014;51.960;8.542;2023-12-20T02:50:25;82.90;;;78.27;;
2019;SDS011;1014;51.960;8.542;2023-12-20T02:52:52;84.70;;;79.50;;
2019;SDS011;1014;51.960;8.542;2023-12-20T02:55:19;85.63;;;80.57;;
2019;SDS011;1014;51.960;8.542;2023-12-20T02:57:47;85.70;;;80.53;;
2019;SDS011;1014;51.960;8.542;2023-12-20T03:00:14;84.20;;;79.13;;
2019;SDS011;1014;51.960;8.542;2023-12-20T03:02:41;83.13;;;78.10;;
2019;SDS011;1014;51.960;8.542;2023-12-20T03:05:08;82.40;;;77.63;;
2019;SDS011;1014;51.960;8.542;2023-12-20T03:07:36;75.47;;;71.70;;
2019;SDS011;1014;51.960;8.542;2023-12-20T03:10:03;78.25;;;73.85;;
2019;SDS011;1014;51.960;8.542;2023-12-20T03:12:31;76.27;;;71.87;;
2019;SDS011;1014;51.960;8.542;2023-12-20T03:14:59;71.97;;;68.25;;
2019;SDS011;1014;51.960;8.542;2023-12-20T03:17:26;74.03;;;68.80;;
2019;SDS011;1014;51.960;8.542;2023-12-20T03:19:53;77.50;;;73.33;;
2019;SDS011;1014;51.960;8.542;2023-12-20T03:22:20;79.70;;;75.30;;
2019;SDS011;1014;51.960;8.542;2023-12-20T03:24:47;75.43;;;70.90;;
2019;SDS011;1014;51.960;8.542;2023-12-20T03:27:14;80.38;;;75.90;;
2019;SDS011;1014;51.960;8.542;2023-12-20T03:29:41;81.07;;;76.10;;
2019;SDS011;1014;51.960;8.542;2023-12-20T03:32:10;75.33;;;71.33;;
2019;SDS011;1014;51.960;8.542;2023-12-20T03:34:36;76.23;;;71.90;;
2019;SDS011;1014;51.960;8.542;2023-12-20T03:37:03;75.10;;;70.50;;
2019;SDS011;1014;51.960;8.542;2023-12-20T03:39:30;73.60;;;69.40;;
2019;SDS011;1014;51.960;8.542;2023-12-20T03:41:57;70.07;;;65.90;;
2019;SDS011;1014;51.960;8.542;2023-12-20T03:44:24;70.67;;;66.47;;
2019;SDS011;1014;51.960;8.542;2023-12-20T03:46:51;66.37;;;62.53;;
2019;SDS011;1014;51.960;8.542;2023-12-20T03:49:20;67.60;;;63.70;;
2019;SDS011;1014;51.960;8.542;2023-12-20T03:51:47;66.37;;;62.47;;
2019;SDS011;1014;51.960;8.542;2023-12-20T03:54:14;66.70;;;60.95;;
2019;SDS011;1014;51.960;8.542;2023-12-20T03:56:40;60.53;;;56.60;;
2019;SDS011;1014;51.960;8.542;2023-12-20T03:59:08;60.50;;;56.87;;
2019;SDS011;1014;51.960;8.542;2023-12-20T04:01:35;62.17;;;58.22;;
2019;SDS011;1014;51.960;8.542;2023-12-20T04:04:02;62.65;;;59.15;;
2019;SDS011;1014;51.960;8.542;2023-12-20T04:06:30;61.30;;;58.05;;
2019;SDS011;1014;51.960;8.542;2023-12-20T04:08:57;56.90;;;53.80;;
2019;SDS011;1014;51.960;8.542;2023-12-20T04:11:24;66.20;;;61.80;;
2019;SDS011;1014;51.960;8.542;2023-12-20T04:13:51;82.20;;;75.00;;
2019;SDS011;1014;51.960;8.542;2023-12-20T04:16:18;103.57;;;92.47;;
2019;SDS011;1014;51.960;8.542;2023-12-20T04:18:45;63.93;;;58.97;;
2019;SDS011;1014;51.960;8.542;2023-12-20T04:21:12;74.85;;;68.88;;
2019;SDS011;1014;51.960;8.542;2023-12-20T04:23:41;69.10;;;62.80;;
2019;SDS011;1014;51.960;8.542;2023-12-20T04:26:09;80.40;;;73.97;;
2019;SDS011;1014;51.960;8.542;2023-12-20T04:28:36;68.97;;;63.80;;
2019;SDS011;1014;51.960;8.542;2023-12-20T04:31:03;60.58;;;56.97;;
2019;SDS011;1014;51.960;8.542;2023-12-20T04:33:30;56.88;;;53.17;;
2019;SDS011;1014;51.960;8.542;2023-12-20T04:35:57;52.05;;;48.97;;
2019;SDS011;1014;51.960;8.542;2023-12-20T04:38:25;52.27;;;48.63;;
2019;SDS011;1014;51.960;8.542;2023-12-20T04:40:53;52.50;;;49.15;;
2019;SDS011;1014;51.960;8.542;2023-12-20T04:43:20;45.57;;;43.07;;
2019;SDS011;1014;51.960;8.542;2023-12-20T04:45:47;38.40;;;36.35;;
2019;SDS011;1014;51.960;8.542;2023-12-20T04:48:14;34.53;;;32.58;;
2019;SDS011;1014;51.960;8.542;2023-12-20T04:50:41;34.33;;;32.23;;
2019;SDS011;1014;51.960;8.542;2023-12-20T04:53:08;32.97;;;30.90;;
2019;SDS011;1014;51.960;8.542;2023-12-20T04:55:35;31.23;;;29.27;;
2019;SDS011;1014;51.960;8.542;2023-12-20T04:58:03;29.85;;;28.05;;
2019;SDS011;1014;51.960;8.542;2023-12-20T05:00:30;35.63;;;32.23;;
2019;SDS011;1014;51.960;8.542;2023-12-20T05:02:57;30.95;;;28.73;;
2019;SDS011;1014;51.960;8.542;2023-12-20T05:05:24;33.25;;;30.58;;
2019;SDS011;1014;51.960;8.542;2023-12-20T05:07:51;28.20;;;26.42;;
2019;SDS011;1014;51.960;8.542;2023-12-20T05:10:18;30.70;;;28.45;;
2019;SDS011;1014;51.960;8.542;2023-12-20T05:12:45;26.38;;;24.60;;
2019;SDS011;1014;51.960;8.542;2023-12-20T05:15:14;27.37;;;25.97;;
2019;SDS011;1014;51.960;8.542;2023-12-20T05:17:41;28.43;;;26.50;;
2019;SDS011;1014;51.960;8.542;2023-12-20T05:20:08;28.13;;;26.53;;
2019;SDS011;1014;51.960;8.542;2023-12-20T05:22:35;26.73;;;25.13;;
2019;SDS011;1014;51.960;8.542;2023-12-20T05:25:02;27.70;;;26.00;;
2019;SDS011;1014;51.960;8.542;2023-12-20T05:27:29;24.75;;;23.25;;
2019;SDS011;1014;51.960;8.542;2023-12-20T05:29:56;30.30;;;27.60;;
2019;SDS011;1014;51.960;8.542;2023-12-20T05:32:25;30.43;;;28.10;;
2019;SDS011;1014;51.960;8.542;2023-12-20T05:34:52;29.37;;;27.20;;
2019;SDS011;1014;51.960;8.542;2023-12-20T05:37:19;29.17;;;26.87;;
2019;SDS011;1014;51.960;8.542;2023-12-20T05:39:46;31.43;;;28.30;;
2019;SDS011;1014;51.960;8.542;2023-12-20T05:42:13;27.77;;;26.07;;
2019;SDS011;1014;51.960;8.542;2023-12-20T05:44:39;25.20;;;23.95;;
2019;SDS011;1014;51.960;8.542;2023-12-20T05:47:06;26.48;;;25.08;;
2019;SDS011;1014;51.960;8.542;2023-12-20T05:49:35;24.90;;;23.13;;
2019;SDS011;1014;51.960;8.542;2023-12-20T05:52:02;28.10;;;26.13;;
2019;SDS011;1014;51.960;8.542;2023-12-20T05:54:29;24.47;;;23.00;;
2019;SDS011;1014;51.960;8.542;2023-12-20T05:56:56;27.08;;;25.08;;
2019;SDS011;1014;51.960;8.542;2023-12-20T05:59:23;25.70;;;23.40;;
2019;SDS011;1014;51.960;8.542;2023-12-20T06:01:50;27.47;;;25.47;;
2019;SDS011;1014;51.960;8.542;2023-12-20T06:04:17;29.25;;;26.65;;
2019;SDS011;1014;51.960;8.542;2023-12-20T06:06:45;29.97;;;28.17;;
2019;SDS011;1014;51.960;8.542;2023-12-20T06:09:12;31.40;;;29.13;;
2019;SDS011;1014;51.960;8.542;2023-12-20T06:11:40;27.20;;;25.40;;
2019;SDS011;1014;51.960;8.542;2023-12-20T06:14:07;43.60;;;32.17;;
2019;SDS011;1014;51.960;8.542;2023-12-20T06:16:34;27.93;;;25.67;;
2019;SDS011;1014;51.960;8.542;2023-12-20T06:19:01;26.85;;;24.95;;
2019;SDS011;1014;51.960;8.542;2023-12-20T06:21:28;27.88;;;25.42;;
2019;SDS011;1014;51.960;8.542;2023-12-20T06:23:58;30.33;;;28.03;;
2019;SDS011;1014;51.960;8.542;2023-12-20T06:26:25;39.13;;;23.60;;
2019;SDS011;1014;51.960;8.542;2023-12-20T06:28:52;26.70;;;24.73;;
2019;SDS011;1014;51.960;8.542;2023-12-20T06:31:20;29.53;;;26.30;;
2019;SDS011;1014;51.960;8.542;2023-12-20T06:33:47;26.30;;;24.23;;
2019;SDS011;1014;51.960;8.542;2023-12-20T06:36:22;27.33;;;25.23;;
2019;SDS011;1014;51.960;8.542;2023-12-20T06:38:49;26.20;;;24.10;;
2019;SDS011;1014;51.960;8.542;2023-12-20T06:41:17;23.10;;;21.77;;
2019;SDS011;1014;51.960;8.542;2023-12-20T06:43:45;23.83;;;21.92;;
2019;SDS011;1014;51.960;8.542;2023-12-20T06:46:12;26.00;;;23.47;;
2019;SDS011;1014;51.960;8.542;2023-12-20T06:48:39;23.02;;;21.65;;
2019;SDS011;1014;51.960;8.542;2023-12-20T06:51:06;25.60;;;23.50;;
2019;SDS011;1014;51.960;8.542;2023-12-20T06:53:33;24.40;;;23.00;;
2019;SDS011;1014;51.960;8.542;2023-12-20T06:56:00;24.33;;;22.83;;
2019;SDS011;1014;51.960;8.542;2023-12-20T06:58:29;26.37;;;24.17;;
2019;SDS011;1014;51.960;8.542;2023-12-20T07:00:56;22.63;;;20.97;;
2019;SDS011;1014;51.960;8.542;2023-12-20T07:03:23;24.20;;;22.00;;
2019;SDS011;1014;51.960;8.542;2023-12-20T07:05:49;23.80;;;22.13;;
2019;SDS011;1014;51.960;8.542;2023-12-20T07:08:17;22.57;;;20.77;;
2019;SDS011;1014;51.960;8.542;2023-12-20T07:10:44;24.27;;;21.77;;
2019;SDS011;1014;51.960;8.542;2023-12-20T07:13:11;22.17;;;19.57;;
2019;SDS011;1014;51.960;8.542;2023-12-20T07:15:40;23.03;;;20.90;;
2019;SDS011;1014;51.960;8.542;2023-12-20T07:18:07;24.88;;;19.50;;
2019;SDS011;1014;51.960;8.542;2023-12-20T07:20:34;22.92;;;20.92;;
2019;SDS011;1014;51.960;8.542;2023-12-20T07:23:01;24.88;;;22.80;;
2019;SDS011;1014;51.960;8.542;2023-12-20T07:25:28;23.83;;;20.97;;
2019;SDS011;1014;51.960;8.542;2023-12-20T07:27:57;22.27;;;20.67;;
2019;SDS011;1014;51.960;8.542;2023-12-20T07:30:24;21.47;;;20.07;;
2019;SDS011;1014;51.960;8.542;2023-12-20T07:32:52;21.50;;;20.10;;
2019;SDS011;1014;51.960;8.542;2023-12-20T07:35:19;22.38;;;20.58;;
2019;SDS011;1014;51.960;8.542;2023-12-20T07:37:46;22.55;;;20.27;;
2019;SDS011;1014;51.960;8.542;2023-12-20T07:40:13;22.05;;;20.25;;
2019;SDS011;1014;51.960;8.542;2023-12-20T07:42:42;25.70;;;21.75;;
2019;SDS011;1014;51.960;8.542;2023-12-20T07:45:09;22.98;;;19.50;;
2019;SDS011;1014;51.960;8.542;2023-12-20T07:47:36;20.77;;;19.13;;
2019;SDS011;1014;51.960;8.542;2023-12-20T07:50:05;21.92;;;19.63;;
2019;SDS011;1014;51.960;8.542;2023-12-20T07:52:32;22.25;;;20.15;;
2019;SDS011;1014;51.960;8.542;2023-12-20T07:54:59;19.00;;;17.70;;
2019;SDS011;1014;51.960;8.542;2023-12-20T07:57:28;20.40;;;19.10;;
2019;SDS011;1014;51.960;8.542;2023-12-20T07:59:55;46.05;;;19.70;;
2019;SDS011;1014;51.960;8.542;2023-12-20T08:02:22;32.40;;;17.70;;
2019;SDS011;1014;51.960;8.542;2023-12-20T08:04:49;18.43;;;16.83;;
2019;SDS011;1014;51.960;8.542;2023-12-20T08:07:17;19.33;;;17.90;;
2019;SDS011;1014;51.960;8.542;2023-12-20T08:09:44;20.20;;;18.77;;
2019;SDS011;1014;51.960;8.542;2023-12-20T08:12:11;18.02;;;16.92;;
2019;SDS011;1014;51.960;8.542;2023-12-20T08:14:38;18.58;;;16.90;;
2019;SDS011;1014;51.960;8.542;2023-12-20T08:17:05;16.90;;;15.98;;
2019;SDS011;1014;51.960;8.542;2023-12-20T08:19:32;18.15;;;17.05;;
2019;SDS011;1014;51.960;8.542;2023-12-20T08:21:59;18.77;;;17.67;;
2019;SDS011;1014;51.960;8.542;2023-12-20T08:24:28;18.45;;;17.23;;
2019;SDS011;1014;51.960;8.542;2023-12-20T08:26:56;20.27;;;18.70;;
2019;SDS011;1014;51.960;8.542;2023-12-20T08:29:23;18.42;;;16.60;;
2019;SDS011;1014;51.960;8.542;2023-12-20T08:31:51;19.45;;;17.75;;
2019;SDS011;1014;51.960;8.542;2023-12-20T08:34:19;20.83;;;19.42;;
2019;SDS011;1014;51.960;8.542;2023-12-20T08:36:46;21.33;;;19.73;;
2019;SDS011;1014;51.960;8.542;2023-12-20T08:39:13;24.93;;;21.40;;
2019;SDS011;1014;51.960;8.542;2023-12-20T08:41:41;17.50;;;16.48;;
2019;SDS011;1014;51.960;8.542;2023-12-20T08:44:08;21.50;;;20.10;;
2019;SDS011;1014;51.960;8.542;2023-12-20T08:46:35;20.60;;;19.10;;
2019;SDS011;1014;51.960;8.542;2023-12-20T08:49:02;19.55;;;17.65;;
2019;SDS011;1014;51.960;8.542;2023-12-20T08:51:30;20.13;;;18.70;;
2019;SDS011;1014;51.960;8.542;2023-12-20T08:53:57;22.27;;;20.15;;
2019;SDS011;1014;51.960;8.542;2023-12-20T08:56:24;22.83;;;20.83;;
2019;SDS011;1014;51.960;8.542;2023-12-20T08:58:52;21.13;;;19.70;;
2019;SDS011;1014;51.960;8.542;2023-12-20T09:01:19;22.47;;;20.43;;
2019;SDS011;1014;51.960;8.542;2023-12-20T09:03:46;20.17;;;18.50;;
2019;SDS011;1014;51.960;8.542;2023-12-20T09:06:13;20.07;;;18.40;;
2019;SDS011;1014;51.960;8.542;2023-12-20T09:08:40;22.40;;;20.30;;
2019;SDS011;1014;51.960;8.542;2023-12-20T09:11:07;23.77;;;21.20;;
2019;SDS011;1014;51.960;8.542;2023-12-20T09:13:35;21.23;;;19.50;;
2019;SDS011;1014;51.960;8.542;2023-12-20T09:16:03;18.75;;;17.40;;
2019;SDS011;1014;51.960;8.542;2023-12-20T09:18:31;20.52;;;19.15;;
2019;SDS011;1014;51.960;8.542;2023-12-20T09:20:58;21.13;;;19.50;;
2019;SDS011;1014;51.960;8.542;2023-12-20T09:23:25;24.80;;;22.05;;
2019;SDS011;1014;51.960;8.542;2023-12-20T09:25:52;21.58;;;19.70;;
2019;SDS011;1014;51.960;8.542;2023-12-20T09:28:19;21.30;;;19.73;;
2019;SDS011;1014;51.960;8.542;2023-12-20T09:30:46;21.80;;;20.20;;
2019;SDS011;1014;51.960;8.542;2023-12-20T09:33:14;22.43;;;20.93;;
2019;SDS011;1014;51.960;8.542;2023-12-20T09:35:42;24.17;;;21.88;;
2019;SDS011;1014;51.960;8.542;2023-12-20T09:38:09;21.38;;;19.70;;
2019;SDS011;1014;51.960;8.542;2023-12-20T09:40:36;20.83;;;19.63;;
2019;SDS011;1014;51.960;8.542;2023-12-20T09:43:03;18.83;;;17.90;;
2019;SDS011;1014;51.960;8.542;2023-12-20T09:45:30;25.98;;;23.48;;
2019;SDS011;1014;51.960;8.542;2023-12-20T09:47:58;24.38;;;22.35;;
2019;SDS011;1014;51.960;8.542;2023-12-20T09:50:26;24.45;;;21.92;;
2019;SDS011;1014;51.960;8.542;2023-12-20T09:52:55;24.87;;;22.33;;
2019;SDS011;1014;51.960;8.542;2023-12-20T09:55:24;22.20;;;20.30;;
2019;SDS011;1014;51.960;8.542;2023-12-20T09:57:51;21.23;;;19.60;;
2019;SDS011;1014;51.960;8.542;2023-12-20T10:00:18;22.10;;;20.37;;
2019;SDS011;1014;51.960;8.542;2023-12-20T10:02:49;18.83;;;17.83;;
2019;SDS011;1014;51.960;8.542;2023-12-20T10:05:17;21.30;;;19.83;;
2019;SDS011;1014;51.960;8.542;2023-12-20T10:07:46;22.98;;;20.65;;
2019;SDS011;1014;51.960;8.542;2023-12-20T10:10:13;22.40;;;20.47;;
2019;SDS011;1014;51.960;8.542;2023-12-20T10:12:40;23.77;;;21.35;;
2019;SDS011;1014;51.960;8.542;2023-12-20T10:15:27;22.33;;;20.50;;
2019;SDS011;1014;51.960;8.542;2023-12-20T10:17:54;22.50;;;20.10;;
2019;SDS011;1014;51.960;8.542;2023-12-20T10:20:21;21.27;;;19.33;;
2019;SDS011;1014;51.960;8.542;2023-12-20T10:22:49;19.75;;;18.25;;
2019;SDS011;1014;51.960;8.542;2023-12-20T10:25:18;18.60;;;17.35;;
2019;SDS011;1014;51.960;8.542;2023-12-20T10:27:45;22.23;;;20.13;;
2019;SDS011;1014;51.960;8.542;2023-12-20T10:30:13;20.13;;;18.93;;
2019;SDS011;1014;51.960;8.542;2023-12-20T10:32:40;21.67;;;19.80;;
2019;SDS011;1014;51.960;8.542;2023-12-20T10:35:08;20.93;;;18.77;;
2019;SDS011;1014;51.960;8.542;2023-12-20T10:37:35;19.57;;;18.13;;
2019;SDS011;1014;51.960;8.542;2023-12-20T10:40:04;22.73;;;20.75;;
2019;SDS011;1014;51.960;8.542;2023-12-20T10:42:32;22.13;;;20.17;;
2019;SDS011;1014;51.960;8.542;2023-12-20T10:44:59;21.53;;;19.73;;
2019;SDS011;1014;51.960;8.542;2023-12-20T10:47:26;24.53;;;22.70;;
2019;SDS011;1014;51.960;8.542;2023-12-20T10:49:54;25.13;;;23.20;;
2019;SDS011;1014;51.960;8.542;2023-12-20T10:52:22;24.37;;;22.47;;
2019;SDS011;1014;51.960;8.542;2023-12-20T10:54:49;24.75;;;22.95;;
2019;SDS011;1014;51.960;8.542;2023-12-20T10:57:18;25.03;;;22.83;;
2019;SDS011;1014;51.960;8.542;2023-12-20T10:59:45;24.95;;;23.55;;
2019;SDS011;1014;51.960;8.542;2023-12-20T11:02:15;24.20;;;22.50;;
2019;SDS011;1014;51.960;8.542;2023-12-20T11:04:44;29.33;;;23.42;;
2019;SDS011;1014;51.960;8.542;2023-12-20T11:07:17;21.17;;;20.17;;
2019;SDS011;1014;51.960;8.542;2023-12-20T11:09:45;22.63;;;21.30;;
2019;SDS011;1014;51.960;8.542;2023-12-20T11:12:15;25.60;;;23.77;;
2019;SDS011;1014;51.960;8.542;2023-12-20T11:14:46;23.47;;;22.00;;
2019;SDS011;1014;51.960;8.542;2023-12-20T11:17:13;23.90;;;22.20;;
2019;SDS011;1014;51.960;8.542;2023-12-20T11:22:26;24.63;;;21.97;;
2019;SDS011;1014;51.960;8.542;2023-12-20T11:24:54;23.33;;;21.63;;
2019;SDS011;1014;51.960;8.542;2023-12-20T11:27:24;23.60;;;22.02;;
2019;SDS011;1014;51.960;8.542;2023-12-20T11:29:53;22.80;;;21.20;;
2019;SDS011;1014;51.960;8.542;2023-12-20T11:32:30;25.58;;;23.23;;
2019;SDS011;1014;51.960;8.542;2023-12-20T11:34:57;22.00;;;20.90;;
2019;SDS011;1014;51.960;8.542;2023-12-20T11:37:28;23.25;;;21.83;;
2019;SDS011;1014;51.960;8.542;2023-12-20T11:39:56;23.83;;;21.65;;
2019;SDS011;1014;51.960;8.542;2023-12-20T11:42:27;21.73;;;20.43;;
2019;SDS011;1014;51.960;8.542;2023-12-20T11:44:55;20.77;;;19.88;;
2019;SDS011;1014;51.960;8.542;2023-12-20T11:47:22;24.33;;;22.20;;
2019;SDS011;1014;51.960;8.542;2023-12-20T11:49:50;21.53;;;20.10;;
2019;SDS011;1014;51.960;8.542;2023-12-20T11:52:17;19.33;;;18.20;;
2019;SDS011;1014;51.960;8.542;2023-12-20T11:54:44;24.33;;;22.63;;
2019;SDS011;1014;51.960;8.542;2023-12-20T11:57:12;20.45;;;19.23;;
2019;SDS011;1014;51.960;8.542;2023-12-20T11:59:39;21.13;;;19.43;;
2019;SDS011;1014;51.960;8.542;2023-12-20T12:02:08;19.63;;;18.33;;
2019;SDS011;1014;51.960;8.542;2023-12-20T12:04:35;19.20;;;17.87;;
2019;SDS011;1014;51.960;8.542;2023-12-20T12:07:02;19.40;;;18.30;;
2019;SDS011;1014;51.960;8.542;2023-12-20T12:09:29;20.30;;;18.70;;
2019;SDS011;1014;51.960;8.542;2023-12-20T12:11:56;18.83;;;17.63;;
2019;SDS011;1014;51.960;8.542;2023-12-20T12:14:23;19.90;;;18.30;;
2019;SDS011;1014;51.960;8.542;2023-12-20T12:16:50;21.00;;;19.30;;
2019;SDS011;1014;51.960;8.542;2023-12-20T12:19:22;18.87;;;17.87;;
2019;SDS011;1014;51.960;8.542;2023-12-20T12:21:50;19.80;;;18.30;;
2019;SDS011;1014;51.960;8.542;2023-12-20T12:24:20;18.40;;;17.40;;
2019;SDS011;1014;51.960;8.542;2023-12-20T12:26:49;20.03;;;18.10;;
2019;SDS011;1014;51.960;8.542;2023-12-20T12:29:17;18.80;;;17.70;;
2019;SDS011;1014;51.960;8.542;2023-12-20T12:31:44;17.13;;;16.23;;
2019;SDS011;1014;51.960;8.542;2023-12-20T12:34:11;17.73;;;16.87;;
2019;SDS011;1014;51.960;8.542;2023-12-20T12:36:39;17.13;;;16.33;;
2019;SDS011;1014;51.960;8.542;2023-12-20T12:39:06;18.83;;;16.95;;
2019;SDS011;1014;51.960;8.542;2023-12-20T12:41:33;20.50;;;18.57;;
2019;SDS011;1014;51.960;8.542;2023-12-20T12:44:00;17.67;;;16.53;;
2019;SDS011;1014;51.960;8.542;2023-12-20T12:46:27;17.87;;;16.60;;
2019;SDS011;1014;51.960;8.542;2023-12-20T12:48:54;20.20;;;18.57;;
2019;SDS011;1014;51.960;8.542;2023-12-20T12:51:21;17.87;;;16.67;;
2019;SDS011;1014;51.960;8.542;2023-12-20T12:53:49;18.43;;;17.33;;
2019;SDS011;1014;51.960;8.542;2023-12-20T12:56:16;17.92;;;16.65;;
2019;SDS011;1014;51.960;8.542;2023-12-20T12:58:43;18.80;;;17.37;;
2019;SDS011;1014;51.960;8.542;2023-12-20T13:01:10;19.90;;;18.30;;
2019;SDS011;1014;51.960;8.542;2023-12-20T13:03:37;18.60;;;17.00;;
2019;SDS011;1014;51.960;8.542;2023-12-20T13:06:05;18.60;;;17.50;;
2019;SDS011;1014;51.960;8.542;2023-12-20T13:08:33;18.43;;;17.33;;
2019;SDS011;1014;51.960;8.542;2023-12-20T13:11:02;19.63;;;18.15;;
2019;SDS011;1014;51.960;8.542;2023-12-20T13:13:29;19.20;;;17.77;;
2019;SDS011;1014;51.960;8.542;2023-12-20T13:15:56;18.93;;;17.83;;
2019;SDS011;1014;51.960;8.542;2023-12-20T13:18:23;19.17;;;17.30;;
2019;SDS011;1014;51.960;8.542;2023-12-20T13:20:50;18.63;;;17.50;;
2019;SDS011;1014;51.960;8.542;2023-12-20T13:23:17;18.93;;;17.53;;
2019;SDS011;1014;51.960;8.542;2023-12-20T13:25:44;19.53;;;18.43;;
2019;SDS011;1014;51.960;8.542;2023-12-20T13:28:13;51.63;;;48.73;;
2019;SDS011;1014;51.960;8.542;2023-12-20T13:30:40;52.33;;;48.73;;
2019;SDS011;1014;51.960;8.542;2023-12-20T13:33:07;54.27;;;50.60;;
2019;SDS011;1014;51.960;8.542;2023-12-20T13:35:35;52.87;;;49.87;;
2019;SDS011;1014;51.960;8.542;2023-12-20T13:38:02;52.05;;;49.15;;
2019;SDS011;1014;51.960;8.542;2023-12-20T13:40:29;54.83;;;51.73;;
2019;SDS011;1014;51.960;8.542;2023-12-20T13:42:56;54.27;;;51.27;;
2019;SDS011;1014;51.960;8.542;2023-12-20T13:45:25;54.23;;;51.00;;
2019;SDS011;1014;51.960;8.542;2023-12-20T13:47:52;56.63;;;53.20;;
2019;SDS011;1014;51.960;8.542;2023-12-20T13:50:19;58.90;;;55.70;;
2019;SDS011;1014;51.960;8.542;2023-12-20T13:52:46;61.53;;;57.92;;
2019;SDS011;1014;51.960;8.542;2023-12-20T13:55:14;59.17;;;55.63;;
2019;SDS011;1014;51.960;8.542;2023-12-20T13:57:41;67.60;;;63.80;;
2019;SDS011;1014;51.960;8.542;2023-12-20T14:00:09;67.63;;;63.75;;
2019;SDS011;1014;51.960;8.542;2023-12-20T14:02:40;69.70;;;65.43;;
2019;SDS011;1014;51.960;8.542;2023-12-20T14:05:07;71.70;;;68.00;;
2019;SDS011;1014;51.960;8.542;2023-12-20T14:07:35;73.50;;;69.57;;
2019;SDS011;1014;51.960;8.542;2023-12-20T14:10:02;70.57;;;67.07;;
2019;SDS011;1014;51.960;8.542;2023-12-20T14:12:29;74.43;;;70.22;;
2019;SDS011;1014;51.960;8.542;2023-12-20T14:14:57;74.30;;;70.68;;
2019;SDS011;1014;51.960;8.542;2023-12-20T14:17:24;74.32;;;70.63;;
2019;SDS011;1014;51.960;8.542;2023-12-20T14:19:52;76.53;;;72.68;;
2019;SDS011;1014;51.960;8.542;2023-12-20T14:22:19;75.73;;;72.00;;
2019;SDS011;1014;51.960;8.542;2023-12-20T14:24:46;78.13;;;74.22;;
2019;SDS011;1014;51.960;8.542;2023-12-20T14:27:13;82.70;;;78.20;;
2019;SDS011;1014;51.960;8.542;2023-12-20T14:29:40;80.05;;;75.97;;
2019;SDS011;1014;51.960;8.542;2023-12-20T14:32:07;81.57;;;76.93;;
2019;SDS011;1014;51.960;8.542;2023-12-20T14:34:34;84.90;;;80.72;;
2019;SDS011;1014;51.960;8.542;2023-12-20T14:37:04;84.25;;;79.47;;
2019;SDS011;1014;51.960;8.542;2023-12-20T14:39:31;85.18;;;80.72;;
2019;SDS011;1014;51.960;8.542;2023-12-20T14:41:58;90.65;;;85.38;;
2019;SDS011;1014;51.960;8.542;2023-12-20T14:44:25;85.43;;;81.05;;
2019;SDS011;1014;51.960;8.542;2023-12-20T14:46:52;85.00;;;80.72;;
2019;SDS011;1014;51.960;8.542;2023-12-20T14:49:18;84.78;;;80.43;;
2019;SDS011;1014;51.960;8.542;2023-12-20T14:51:45;83.93;;;79.38;;